createdAt,value
2022-11-03T00:02:12.837Z,101768.38
2022-11-03T00:04:39.817Z,101790.47
2022-11-03T00:07:06.821Z,101768.75
2022-11-03T00:09:33.927Z,101762.78
2022-11-03T00:12:01.755Z,101764.00
2022-11-03T00:14:28.796Z,101771.53
2022-11-03T00:16:56.142Z,101766.59
2022-11-03T00:19:22.999Z,101766.31
2022-11-03T00:21:50.257Z,101768.34
2022-11-03T00:24:17.142Z,101767.91
2022-11-03T00:26:43.958Z,101758.84
2022-11-03T00:29:13.578Z,101758.66
2022-11-03T00:31:43.893Z,101768.84
2022-11-03T00:34:11.827Z,101766.56
2022-11-03T00:36:41.963Z,101754.63
2022-11-03T00:39:10.183Z,101760.31
2022-11-03T00:41:37.730Z,101754.53
2022-11-03T00:44:04.981Z,101752.69
2022-11-03T00:46:35.410Z,101755.53
2022-11-03T00:49:04.726Z,101755.72
2022-11-03T00:51:34.340Z,101753.44
2022-11-03T00:54:04.554Z,101747.84
2022-11-03T00:56:35.369Z,101752.34
2022-11-03T00:59:04.800Z,101742.28
2022-11-03T01:01:45.634Z,101728.97
2022-11-03T01:04:33.487Z,101734.66
2022-11-03T01:07:02.373Z,101720.09
2022-11-03T01:09:31.528Z,101726.63
2022-11-03T01:12:16.318Z,101729.47
2022-11-03T01:14:52.445Z,101724.69
2022-11-03T01:17:26.648Z,101731.22
2022-11-03T01:19:54.442Z,101726.44
2022-11-03T01:22:23.345Z,101729.28
2022-11-03T01:24:52.114Z,101723.53
2022-11-03T01:27:22.374Z,101726.53
2022-11-03T01:29:49.411Z,101730.22
2022-11-03T01:32:17.087Z,101726.09
2022-11-03T01:34:44.025Z,101727.47
2022-11-03T01:37:10.906Z,101722.16
2022-11-03T01:39:37.927Z,101717.84
2022-11-03T01:42:05.285Z,101712.72
2022-11-03T01:44:37.837Z,101713.53
2022-11-03T01:47:20.010Z,101712.09
2022-11-03T01:49:58.957Z,101712.25
2022-11-03T01:52:39.117Z,101709.97
2022-11-03T01:55:30.029Z,101727.75
2022-11-03T01:58:14.114Z,101727.28
2022-11-03T02:00:44.344Z,101717.03
2022-11-03T02:03:11.650Z,101721.31
2022-11-03T02:05:40.361Z,101716.38
2022-11-03T02:08:14.799Z,101710.25
2022-11-03T02:10:41.816Z,101705.13
2022-11-03T02:13:22.060Z,101712.44
2022-11-03T02:15:56.714Z,101715.75
2022-11-03T02:18:32.084Z,101720.41
2022-11-03T02:21:18.779Z,101695.56
2022-11-03T02:24:11.087Z,101697.03
2022-11-03T02:26:38.458Z,101696.56
2022-11-03T02:29:05.309Z,101696.56
2022-11-03T02:32:02.117Z,101691.44
2022-11-03T02:34:35.787Z,101675.25
2022-11-03T02:37:12.593Z,101673.59
2022-11-03T02:39:54.606Z,101675.88
2022-11-03T02:42:23.791Z,101660.03
2022-11-03T02:44:52.447Z,101665.63
2022-11-03T02:47:21.510Z,101659.50
2022-11-03T02:49:50.829Z,101674.41
2022-11-03T02:52:47.362Z,101672.59
2022-11-03T02:55:34.485Z,101670.75
2022-11-03T02:58:55.199Z,101674.06
2022-11-03T03:01:48.933Z,101673.41
2022-11-03T03:04:51.218Z,101665.53
2022-11-03T03:07:27.314Z,101660.41
2022-11-03T03:10:03.849Z,101656.03
2022-11-03T03:12:35.531Z,101658.50
2022-11-03T03:15:06.283Z,101644.41
2022-11-03T03:17:46.293Z,101648.81
2022-11-03T03:21:05.752Z,101640.84
2022-11-03T03:23:37.613Z,101646.97
2022-11-03T03:26:32.178Z,101645.31
2022-11-03T03:29:17.672Z,101648.25
2022-11-03T03:31:53.915Z,101648.06
2022-11-03T03:34:34.677Z,101641.66
2022-11-03T03:37:06.168Z,101639.72
2022-11-03T03:39:36.813Z,101637.63
2022-11-03T03:42:05.776Z,101646.59
2022-11-03T03:44:34.172Z,101642.72
2022-11-03T03:47:08.015Z,101643.38
2022-11-03T03:49:34.924Z,101632.28
2022-11-03T03:52:03.759Z,101634.66
2022-11-03T03:54:30.768Z,101633.00
2022-11-03T03:57:06.200Z,101636.13
2022-11-03T03:59:33.648Z,101637.94
2022-11-03T04:02:00.666Z,101626.22
2022-11-03T04:04:27.896Z,101624.22
2022-11-03T04:07:14.912Z,101628.88
2022-11-03T04:09:42.055Z,101636.66
2022-11-03T04:12:28.539Z,101634.38
2022-11-03T04:15:13.781Z,101623.31
2022-11-03T04:18:05.832Z,101631.66
2022-11-03T04:20:52.806Z,101628.09
2022-11-03T04:23:20.350Z,101632.75
2022-11-03T04:25:57.547Z,101630.09
2022-11-03T04:28:27.390Z,101632.50
2022-11-03T04:30:59.579Z,101633.13
2022-11-03T04:33:27.136Z,101630.66
2022-11-03T04:35:58.663Z,101630.03
2022-11-03T04:38:27.758Z,101625.72
2022-11-03T04:40:57.483Z,101622.44
2022-11-03T04:43:33.526Z,101609.88
2022-11-03T04:46:01.287Z,101615.22
2022-11-03T04:48:29.397Z,101616.22
2022-11-03T04:51:02.419Z,101615.22
2022-11-03T04:53:33.170Z,101602.00
2022-11-03T04:56:07.038Z,101609.41
2022-11-03T04:58:36.344Z,101596.81
2022-11-03T05:01:03.899Z,101605.78
2022-11-03T05:03:34.439Z,101596.13
2022-11-03T05:06:22.417Z,101584.69
2022-11-03T05:09:17.552Z,101579.56
2022-11-03T05:11:48.255Z,101583.41
2022-11-03T05:14:20.703Z,101580.75
2022-11-03T05:16:50.964Z,101579.47
2022-11-03T05:19:39.382Z,101566.22
2022-11-03T05:22:17.302Z,101558.88
2022-11-03T05:24:44.924Z,101563.00
2022-11-03T05:27:22.770Z,101562.63
2022-11-03T05:29:51.479Z,101566.28
2022-11-03T05:32:28.845Z,101573.44
2022-11-03T05:34:57.063Z,101551.75
2022-11-03T05:37:31.305Z,101547.06
2022-11-03T05:40:05.087Z,101555.03
2022-11-03T05:42:37.207Z,101550.28
2022-11-03T05:45:25.768Z,101541.69
2022-11-03T05:47:56.100Z,101532.88
2022-11-03T05:50:28.011Z,101534.72
2022-11-03T05:53:26.834Z,101532.63
2022-11-03T05:55:55.851Z,101537.56
2022-11-03T05:58:41.382Z,101541.22
2022-11-03T06:01:41.508Z,101526.88
2022-11-03T06:04:20.984Z,101539.41
2022-11-03T06:07:01.359Z,101537.38
2022-11-03T06:09:29.186Z,101534.34
2022-11-03T06:11:59.318Z,101533.16
2022-11-03T06:14:28.595Z,101532.78
2022-11-03T06:17:02.639Z,101530.44
2022-11-03T06:19:48.071Z,101543.97
2022-11-03T06:22:28.758Z,101531.97
2022-11-03T06:25:12.084Z,101540.19
2022-11-03T06:27:39.586Z,101534.50
2022-11-03T06:30:29.576Z,101549.13
2022-11-03T06:33:02.113Z,101543.63
2022-11-03T06:35:29.216Z,101552.47
2022-11-03T06:38:00.196Z,101536.91
2022-11-03T06:40:37.170Z,101541.28
2022-11-03T06:43:19.392Z,101537.88
2022-11-03T06:45:53.645Z,101545.66
2022-11-03T06:48:30.462Z,101544.25
2022-11-03T06:50:59.997Z,101538.75
2022-11-03T06:53:32.159Z,101536.72
2022-11-03T06:55:59.983Z,101532.25
2022-11-03T06:58:38.506Z,101535.97
2022-11-03T07:01:20.353Z,101530.28
2022-11-03T07:03:49.484Z,101519.44
2022-11-03T07:06:26.305Z,101524.19
2022-11-03T07:08:56.612Z,101513.56
2022-11-03T07:11:28.455Z,101512.97
2022-11-03T07:14:09.807Z,101508.09
2022-11-03T07:16:51.182Z,101502.88
2022-11-03T07:19:24.089Z,101507.66
2022-11-03T07:21:56.931Z,101506.34
2022-11-03T07:24:34.060Z,101503.06
2022-11-03T07:27:22.992Z,101491.13
2022-11-03T07:29:51.531Z,101497.25
2022-11-03T07:32:31.730Z,101489.53
2022-11-03T07:35:23.058Z,101485.09
2022-11-03T07:37:52.646Z,101494.94
2022-11-03T07:40:28.159Z,101493.59
2022-11-03T07:43:01.359Z,101499.00
2022-11-03T07:45:31.017Z,101492.22
2022-11-03T07:48:04.420Z,101484.75
2022-11-03T07:50:35.400Z,101475.72
2022-11-03T07:53:02.786Z,101476.47
2022-11-03T07:55:29.668Z,101468.22
2022-11-03T07:57:59.317Z,101468.25
2022-11-03T08:00:27.454Z,101466.97
2022-11-03T08:03:00.901Z,101460.25
2022-11-03T08:05:27.913Z,101464.56
2022-11-03T08:07:54.780Z,101458.03
2022-11-03T08:10:21.964Z,101453.78
2022-11-03T08:12:48.818Z,101449.56
2022-11-03T08:15:15.951Z,101426.00
2022-11-03T08:17:42.839Z,101436.91
2022-11-03T08:20:10.429Z,101417.31
2022-11-03T08:22:37.244Z,101413.28
2022-11-03T08:25:04.814Z,101423.31
2022-11-03T08:27:31.637Z,101407.34
2022-11-03T08:29:58.644Z,101412.13
2022-11-03T08:32:25.883Z,101400.69
2022-11-03T08:34:52.811Z,101406.34
2022-11-03T08:37:19.628Z,101407.03
2022-11-03T08:39:46.644Z,101401.78
2022-11-03T08:42:13.455Z,101397.97
2022-11-03T08:44:40.531Z,101386.28
2022-11-03T08:47:08.094Z,101381.84
2022-11-03T08:49:35.015Z,101373.28
2022-11-03T08:52:01.824Z,101377.41
2022-11-03T08:54:29.306Z,101369.31
2022-11-03T08:56:56.159Z,101364.97
2022-11-03T08:59:23.066Z,101355.19
2022-11-03T09:01:50.725Z,101341.53
2022-11-03T09:04:17.671Z,101339.47
2022-11-03T09:06:44.527Z,101340.63
2022-11-03T09:11:58.609Z,101332.28
2022-11-03T09:14:25.637Z,101327.97
2022-11-03T09:16:52.578Z,101315.56
2022-11-03T09:19:19.430Z,101314.69
2022-11-03T09:21:46.553Z,101319.47
2022-11-03T09:24:13.365Z,101321.91
2022-11-03T09:26:40.562Z,101313.56
2022-11-03T09:29:07.513Z,101308.34
2022-11-03T09:31:34.427Z,101309.34
2022-11-03T09:34:01.253Z,101297.06
2022-11-03T09:36:28.308Z,101302.72
2022-11-03T09:38:55.183Z,101284.41
2022-11-03T09:41:29.157Z,101283.53
2022-11-03T09:44:10.455Z,101278.09
2022-11-03T09:46:37.856Z,101263.41
2022-11-03T09:49:05.932Z,101256.88
2022-11-03T09:51:35.094Z,101250.41
2022-11-03T09:54:04.951Z,101258.50
2022-11-03T09:56:35.905Z,101240.66
2022-11-03T09:59:17.353Z,101247.69
2022-11-03T10:01:48.928Z,101243.56
2022-11-03T10:04:28.041Z,101239.13
2022-11-03T10:06:56.762Z,101232.03
2022-11-03T10:09:25.187Z,101220.91
2022-11-03T10:11:54.471Z,101230.47
2022-11-03T10:14:23.010Z,101228.91
2022-11-03T10:16:57.410Z,101220.16
2022-11-03T10:19:25.075Z,101209.03
2022-11-03T10:21:52.600Z,101208.47
2022-11-03T10:24:19.869Z,101201.81
2022-11-03T10:26:57.268Z,101197.16
2022-11-03T10:29:26.833Z,101197.00
2022-11-03T10:31:56.817Z,101196.69
2022-11-03T10:34:34.553Z,101189.72
2022-11-03T10:37:20.939Z,101178.88
2022-11-03T10:39:50.698Z,101183.03
2022-11-03T10:42:30.502Z,101187.13
2022-11-03T10:45:20.516Z,101170.06
2022-11-03T10:48:01.731Z,101165.06
2022-11-03T10:50:29.123Z,101161.13
2022-11-03T10:52:56.726Z,101164.66
2022-11-03T10:55:25.798Z,101158.72
2022-11-03T10:57:58.139Z,101157.69
2022-11-03T11:00:25.513Z,101153.06
2022-11-03T11:03:00.344Z,101156.94
2022-11-03T11:05:27.474Z,101151.56
2022-11-03T11:07:55.446Z,101143.56
2022-11-03T11:10:29.149Z,101143.72
2022-11-03T11:13:19.145Z,101144.28
2022-11-03T11:15:51.084Z,101135.88
2022-11-03T11:18:29.987Z,101134.34
2022-11-03T11:21:01.275Z,101135.63
2022-11-03T11:23:28.533Z,101135.94
2022-11-03T11:26:10.862Z,101132.13
2022-11-03T11:28:46.627Z,101124.50
2022-11-03T11:31:22.765Z,101118.16
2022-11-03T11:33:50.200Z,101124.03
2022-11-03T11:36:24.342Z,101117.41
2022-11-03T11:38:55.602Z,101116.97
2022-11-03T11:42:11.808Z,101096.72
2022-11-03T11:44:54.505Z,101096.22
2022-11-03T11:47:45.835Z,101092.78
2022-11-03T11:50:21.486Z,101088.75
2022-11-03T11:53:11.153Z,101091.50
2022-11-03T11:55:55.380Z,101092.28
2022-11-03T11:58:48.231Z,101089.06
2022-11-03T12:01:29.394Z,101071.19
2022-11-03T12:04:01.069Z,101068.78
2022-11-03T12:06:36.904Z,101068.00
2022-11-03T12:09:19.061Z,101067.44
2022-11-03T12:11:52.591Z,101055.00
2022-11-03T12:14:27.373Z,101057.72
2022-11-03T12:16:58.336Z,101053.66
2022-11-03T12:19:42.355Z,101055.56
2022-11-03T12:22:11.610Z,101055.53
2022-11-03T12:24:51.695Z,101050.66
2022-11-03T12:27:18.542Z,101053.34
2022-11-03T12:29:45.378Z,101042.25
2022-11-03T12:32:25.855Z,101038.16
2022-11-03T12:34:59.249Z,101035.44
2022-11-03T12:37:26.214Z,101039.47
2022-11-03T12:39:53.162Z,101027.88
2022-11-03T12:42:21.006Z,101032.75
2022-11-03T12:44:48.151Z,101024.34
2022-11-03T12:47:14.984Z,101024.63
2022-11-03T12:49:41.905Z,101015.72
2022-11-03T12:52:09.724Z,101017.34
2022-11-03T12:54:36.644Z,101014.63
2022-11-03T12:57:03.587Z,101013.28
2022-11-03T12:59:30.535Z,100997.06
2022-11-03T13:01:57.487Z,101007.88
2022-11-03T13:04:24.713Z,100999.78
2022-11-03T13:06:51.776Z,100998.16
2022-11-03T13:09:18.680Z,100998.16
2022-11-03T13:12:04.310Z,100996.53
2022-11-03T13:14:31.239Z,100997.34
2022-11-03T13:16:58.523Z,100996.53
2022-11-03T13:19:25.763Z,100982.47
2022-11-03T13:21:52.585Z,100980.59
2022-11-03T13:24:20.221Z,100970.06
2022-11-03T13:26:47.308Z,100967.91
2022-11-03T13:29:14.342Z,100953.31
2022-11-03T13:31:41.236Z,100947.66
2022-11-03T13:34:08.761Z,100954.16
2022-11-03T13:36:35.589Z,100939.31
2022-11-03T13:39:02.545Z,100943.63
2022-11-03T13:41:29.409Z,100928.22
2022-11-03T13:43:56.338Z,100921.47
2022-11-03T13:46:23.156Z,100913.34
2022-11-03T13:49:40.939Z,100909.59
2022-11-03T13:51:37.429Z,100902.53
2022-11-03T13:59:38.858Z,100874.31
2022-11-03T14:04:54.007Z,100884.81
2022-11-03T14:07:20.865Z,100883.97
2022-11-03T14:09:47.858Z,100880.75
2022-11-03T14:12:32.977Z,100874.81
2022-11-03T14:15:01.880Z,100872.94
2022-11-03T14:17:28.847Z,100876.19
2022-11-03T14:20:00.729Z,100870.56
2022-11-03T14:22:31.059Z,100866.28
2022-11-03T14:24:58.655Z,100864.66
2022-11-03T14:27:25.908Z,100862.53
2022-11-03T14:29:52.806Z,100859.53
2022-11-03T14:32:20.676Z,100856.31
2022-11-03T14:34:48.574Z,100849.56
2022-11-03T14:37:16.085Z,100844.19
2022-11-03T14:39:43.228Z,100836.91
2022-11-03T14:42:16.478Z,100835.03
2022-11-03T14:44:45.900Z,100837.97
2022-11-03T14:47:17.782Z,100826.09
2022-11-03T14:49:46.434Z,100823.69
2022-11-03T14:52:14.144Z,100819.09
2022-11-03T14:54:41.189Z,100812.91
2022-11-03T14:57:08.148Z,100805.84
2022-11-03T14:59:35.349Z,100802.88
2022-11-03T15:02:03.601Z,100803.66
2022-11-03T15:04:30.969Z,100789.06
2022-11-03T15:06:57.776Z,100782.56
2022-11-03T15:09:24.904Z,100783.09
2022-11-03T15:11:52.034Z,100777.69
2022-11-03T15:14:18.991Z,100769.31
2022-11-03T15:16:46.169Z,100773.88
2022-11-03T15:19:13.526Z,100765.19
2022-11-03T15:21:40.353Z,100748.97
2022-11-03T15:26:54.767Z,100751.28
2022-11-03T15:29:23.774Z,100756.06
2022-11-03T15:31:50.816Z,100749.28
2022-11-03T15:34:18.496Z,100749.25
2022-11-03T15:36:45.519Z,100745.44
2022-11-03T15:39:13.242Z,100758.28
2022-11-03T15:41:40.772Z,100753.38
2022-11-03T15:44:07.810Z,100749.00
2022-11-03T15:46:35.787Z,100739.72
2022-11-03T15:49:03.526Z,100735.63
2022-11-03T15:51:30.532Z,100725.31
2022-11-03T15:53:59.054Z,100741.16
2022-11-03T15:56:29.779Z,100714.19
2022-11-03T15:58:56.690Z,100712.53
2022-11-03T16:01:24.187Z,100704.63
2022-11-03T16:03:51.719Z,100708.38
2022-11-03T16:06:18.573Z,100709.41
2022-11-03T16:08:45.917Z,100690.78
2022-11-03T16:11:14.295Z,100680.31
2022-11-03T16:13:41.226Z,100677.56
2022-11-03T16:16:08.434Z,100670.28
2022-11-03T16:18:35.443Z,100674.53
2022-11-03T16:21:02.346Z,100665.59
2022-11-03T16:23:29.242Z,100664.22
2022-11-03T16:25:56.392Z,100656.66
2022-11-03T16:28:23.734Z,100650.44
2022-11-03T16:30:54.309Z,100652.81
2022-11-03T16:33:22.476Z,100638.78
2022-11-03T16:35:49.571Z,100649.53
2022-11-03T16:38:16.798Z,100652.72
2022-11-03T16:40:44.112Z,100650.53
2022-11-03T16:43:12.150Z,100651.28
2022-11-03T16:45:39.142Z,100649.59
2022-11-03T16:48:07.726Z,100645.28
2022-11-03T16:50:35.263Z,100646.63
2022-11-03T16:53:02.991Z,100624.84
2022-11-03T16:55:30.103Z,100625.88
2022-11-03T16:57:56.918Z,100619.66
2022-11-03T17:00:24.264Z,100614.53
2022-11-03T17:02:51.941Z,100607.00
2022-11-03T17:05:20.740Z,100606.44
2022-11-03T17:07:53.335Z,100602.94
2022-11-03T17:10:22.705Z,100607.75
2022-11-03T17:12:50.586Z,100604.25
2022-11-03T17:15:17.605Z,100603.69
2022-11-03T17:17:45.287Z,100592.16
2022-11-03T17:20:13.036Z,100584.09
2022-11-03T17:22:40.175Z,100588.66
2022-11-03T17:25:09.578Z,100589.47
2022-11-03T17:27:51.584Z,100579.53
2022-11-03T17:30:25.538Z,100571.75
2022-11-03T17:32:56.608Z,100575.00
2022-11-03T17:35:33.654Z,100571.25
2022-11-03T17:38:08.763Z,100569.63
2022-11-03T17:40:36.445Z,100563.44
2022-11-03T17:43:06.524Z,100580.91
2022-11-03T17:45:33.770Z,100565.06
2022-11-03T17:48:00.794Z,100554.31
2022-11-03T17:50:27.831Z,100536.34
2022-11-03T17:52:54.806Z,100540.66
2022-11-03T17:55:32.231Z,100539.34
2022-11-03T17:58:03.928Z,100539.34
2022-11-03T18:00:31.343Z,100533.16
2022-11-03T18:02:58.492Z,100522.41
2022-11-03T18:05:30.339Z,100521.91
2022-11-03T18:08:02.950Z,100521.91
2022-11-03T18:10:36.551Z,100511.44
2022-11-03T18:13:19.439Z,100512.25
2022-11-03T18:15:50.752Z,100513.56
2022-11-03T18:18:30.038Z,100503.59
2022-11-03T18:20:57.843Z,100496.91
2022-11-03T18:23:30.113Z,100493.72
2022-11-03T18:26:01.739Z,100475.97
2022-11-03T18:28:29.285Z,100472.75
2022-11-03T18:30:57.383Z,100462.31
2022-11-03T18:33:32.533Z,100461.75
2022-11-03T18:36:04.226Z,100446.47
2022-11-03T18:38:31.088Z,100416.38
2022-11-03T18:40:57.964Z,100404.03
2022-11-03T18:43:25.784Z,100403.22
2022-11-03T18:45:52.870Z,100404.56
2022-11-03T18:48:19.996Z,100398.13
2022-11-03T18:50:55.294Z,100382.81
2022-11-03T18:53:25.726Z,100384.16
2022-11-03T18:55:54.089Z,100376.34
2022-11-03T18:58:24.239Z,100375.28
2022-11-03T19:00:55.193Z,100371.25
2022-11-03T19:03:23.663Z,100364.00
2022-11-03T19:05:52.779Z,100350.59
2022-11-03T19:08:27.086Z,100335.56
2022-11-03T19:10:55.871Z,100330.69
2022-11-03T19:13:34.553Z,100331.50
2022-11-03T19:16:08.002Z,100338.22
2022-11-03T19:18:36.164Z,100328.00
2022-11-03T19:21:02.972Z,100327.50
2022-11-03T19:23:30.169Z,100323.75
2022-11-03T19:25:59.645Z,100324.81
2022-11-03T19:28:29.879Z,100315.69
2022-11-03T19:30:58.396Z,100304.94
2022-11-03T19:33:30.655Z,100310.59
2022-11-03T19:35:58.497Z,100306.56
2022-11-03T19:38:25.495Z,100306.03
2022-11-03T19:41:11.427Z,100305.22
2022-11-03T19:43:38.346Z,100296.06
2022-11-03T19:46:05.458Z,100288.53
2022-11-03T19:48:34.399Z,100295.28
2022-11-03T19:51:02.078Z,100292.03
2022-11-03T19:53:29.982Z,100276.19
2022-11-03T19:55:57.529Z,100278.06
2022-11-03T19:58:27.452Z,100277.53
2022-11-03T20:00:55.367Z,100268.59
2022-11-03T20:03:23.538Z,100253.53
2022-11-03T20:05:58.073Z,100253.28
2022-11-03T20:08:29.297Z,100256.19
2022-11-03T20:10:56.473Z,100246.25
2022-11-03T20:13:26.605Z,100242.75
2022-11-03T20:16:00.602Z,100241.09
2022-11-03T20:18:27.981Z,100240.28
2022-11-03T20:20:55.110Z,100243.50
2022-11-03T20:23:29.903Z,100234.91
2022-11-03T20:25:57.368Z,100231.91
2022-11-03T20:28:28.907Z,100240.47
2022-11-03T20:30:57.446Z,100240.44
2022-11-03T20:33:25.503Z,100234.78
2022-11-03T20:35:54.188Z,100240.41
2022-11-03T20:38:22.768Z,100221.00
2022-11-03T20:40:55.604Z,100228.28
2022-11-03T20:43:31.533Z,100228.25
2022-11-03T20:45:59.223Z,100219.91
2022-11-03T20:48:26.171Z,100228.69
2022-11-03T20:50:54.484Z,100208.22
2022-11-03T20:53:23.891Z,100218.94
2022-11-03T20:55:52.061Z,100224.22
2022-11-03T20:58:19.271Z,100221.50
2022-11-03T21:00:48.329Z,100220.41
2022-11-03T21:06:17.512Z,100216.25
2022-11-03T21:08:46.335Z,100212.22
2022-11-03T21:11:36.717Z,100205.19
2022-11-03T21:14:26.824Z,100216.13
2022-11-03T21:17:12.453Z,100212.56
2022-11-03T21:19:58.652Z,100208.22
2022-11-03T21:22:52.029Z,100192.63
2022-11-03T21:25:22.351Z,100209.75
2022-11-03T21:27:49.678Z,100201.41
2022-11-03T21:30:18.200Z,100202.16
2022-11-03T21:32:45.344Z,100204.28
2022-11-03T21:35:19.146Z,100199.44
2022-11-03T21:37:46.407Z,100189.16
2022-11-03T21:40:13.263Z,100192.66
2022-11-03T21:42:59.362Z,100175.22
2022-11-03T21:45:26.417Z,100173.78
2022-11-03T21:48:13.975Z,100171.34
2022-11-03T21:50:42.439Z,100165.94
2022-11-03T21:53:10.926Z,100167.31
2022-11-03T21:55:38.547Z,100162.72
2022-11-03T21:58:05.815Z,100186.03
2022-11-03T22:00:33.155Z,100168.63
2022-11-03T22:03:00.991Z,100176.94
2022-11-03T22:05:28.980Z,100167.06
2022-11-03T22:07:55.789Z,100171.59
2022-11-03T22:10:23.419Z,100167.63
2022-11-03T22:12:50.380Z,100165.03
2022-11-03T22:15:36.450Z,100157.47
2022-11-03T22:18:05.427Z,100157.47
2022-11-03T22:20:51.194Z,100161.28
2022-11-03T22:23:36.903Z,100155.59
2022-11-03T22:26:22.408Z,100159.69
2022-11-03T22:29:11.994Z,100151.31
2022-11-03T22:31:41.649Z,100148.97
2022-11-03T22:34:27.440Z,100148.38
2022-11-03T22:36:54.758Z,100147.91
2022-11-03T22:39:39.985Z,100142.22
2022-11-03T22:42:25.789Z,100134.47
2022-11-03T22:45:11.191Z,100128.28
2022-11-03T22:47:38.234Z,100133.91
2022-11-03T22:50:05.471Z,100133.09
2022-11-03T22:52:32.500Z,100122.63
2022-11-03T22:54:59.422Z,100129.84
2022-11-03T22:57:26.570Z,100131.72
2022-11-03T22:59:53.408Z,100129.31
2022-11-03T23:02:20.580Z,100118.00
2022-11-03T23:04:47.453Z,100114.25
2022-11-03T23:07:14.456Z,100091.44
2022-11-03T23:09:41.548Z,100110.78
2022-11-03T23:12:08.483Z,100110.22
2022-11-03T23:14:54.174Z,100111.78
2022-11-03T23:17:41.156Z,100099.66
2022-11-03T23:20:27.198Z,100108.44
2022-11-03T23:22:54.104Z,100104.94
2022-11-03T23:25:20.914Z,100105.66
2022-11-03T23:27:48.000Z,100103.00
2022-11-03T23:30:14.886Z,100103.81
2022-11-03T23:32:42.014Z,100099.75
2022-11-03T23:35:09.773Z,100099.44
2022-11-03T23:37:36.629Z,100088.94
2022-11-03T23:40:03.667Z,100092.44
2022-11-03T23:42:30.634Z,100099.34
2022-11-03T23:45:15.770Z,100086.97
2022-11-03T23:48:01.430Z,100088.53
2022-11-03T23:50:28.274Z,100082.31
2022-11-03T23:52:55.147Z,100093.50
2022-11-03T23:55:22.215Z,100078.75
2022-11-03T23:58:07.970Z,100081.44
